sensor_id;sensor_type;location;lat;lon;timestamp;pressure;altitude;pressure_sealevel;temperature;humidity
17521;BME280;8878;-33.370;-70.552;2022-08-19T00:02:01;92595.47;;;10.28;100.00
17521;BME280;8878;-33.370;-70.552;2022-08-19T00:04:34;92601.75;;;10.22;100.00
17521;BME280;8878;-33.370;-70.552;2022-08-19T00:07:05;92601.66;;;10.16;100.00
17521;BME280;8878;-33.370;-70.552;2022-08-19T00:09:34;92610.56;;;10.10;100.00
17521;BME280;8878;-33.370;-70.552;2022-08-19T00:12:04;92613.19;;;10.05;100.00
17521;BME280;8878;-33.370;-70.552;2022-08-19T00:14:34;92612.34;;;10.00;100.00
17521;BME280;8878;-33.370;-70.552;2022-08-19T00:17:04;92598.81;;;9.91;100.00
17521;BME280;8878;-33.370;-70.552;2022-08-19T00:19:36;92606.72;;;9.91;100.00
17521;BME280;8878;-33.370;-70.552;2022-08-19T00:22:07;92613.56;;;9.87;98.78
17521;BME280;8878;-33.370;-70.552;2022-08-19T00:24:36;92612.69;;;9.81;98.78
17521;BME280;8878;-33.370;-70.552;2022-08-19T00:27:07;92615.59;;;9.80;94.38
17521;BME280;8878;-33.370;-70.552;2022-08-19T00:29:37;92612.66;;;9.76;95.61
17521;BME280;8878;-33.370;-70.552;2022-08-19T00:32:07;92613.28;;;9.62;97.33
17521;BME280;8878;-33.370;-70.552;2022-08-19T00:34:38;92617.41;;;9.53;98.28
17521;BME280;8878;-33.370;-70.552;2022-08-19T00:37:07;92610.50;;;9.47;97.37
17521;BME280;8878;-33.370;-70.552;2022-08-19T00:39:37;92603.34;;;9.42;94.35
17521;BME280;8878;-33.370;-70.552;2022-08-19T00:42:08;92603.31;;;9.37;93.89
17521;BME280;8878;-33.370;-70.552;2022-08-19T00:44:37;92604.03;;;9.32;91.77
17521;BME280;8878;-33.370;-70.552;2022-08-19T00:47:07;92603.50;;;9.30;89.31
17521;BME280;8878;-33.370;-70.552;2022-08-19T00:49:43;92600.06;;;9.30;87.99
17521;BME280;8878;-33.370;-70.552;2022-08-19T00:52:21;92607.84;;;9.20;89.63
17521;BME280;8878;-33.370;-70.552;2022-08-19T00:54:52;92610.47;;;9.20;94.91
17521;BME280;8878;-33.370;-70.552;2022-08-19T00:57:26;92602.94;;;9.28;95.76
17521;BME280;8878;-33.370;-70.552;2022-08-19T00:59:58;92593.50;;;9.32;96.69
17521;BME280;8878;-33.370;-70.552;2022-08-19T01:02:29;92594.00;;;9.29;97.80
17521;BME280;8878;-33.370;-70.552;2022-08-19T01:05:03;92588.94;;;9.23;98.82
17521;BME280;8878;-33.370;-70.552;2022-08-19T01:07:36;92586.72;;;9.15;100.00
17521;BME280;8878;-33.370;-70.552;2022-08-19T01:10:09;92589.03;;;9.11;98.88
17521;BME280;8878;-33.370;-70.552;2022-08-19T01:12:39;92582.25;;;9.15;97.37
17521;BME280;8878;-33.370;-70.552;2022-08-19T01:15:11;92577.03;;;9.20;96.32
17521;BME280;8878;-33.370;-70.552;2022-08-19T01:17:43;92582.78;;;9.17;93.54
17521;BME280;8878;-33.370;-70.552;2022-08-19T01:20:18;92570.38;;;9.13;92.73
17521;BME280;8878;-33.370;-70.552;2022-08-19T01:22:51;92571.72;;;9.15;92.57
17521;BME280;8878;-33.370;-70.552;2022-08-19T01:25:24;92566.47;;;9.15;90.31
17521;BME280;8878;-33.370;-70.552;2022-08-19T01:27:55;92558.81;;;9.14;89.04
17521;BME280;8878;-33.370;-70.552;2022-08-19T01:30:27;92569.56;;;9.12;88.68
17521;BME280;8878;-33.370;-70.552;2022-08-19T01:32:57;92568.53;;;9.13;88.88
17521;BME280;8878;-33.370;-70.552;2022-08-19T01:35:30;92573.25;;;9.11;90.77
17521;BME280;8878;-33.370;-70.552;2022-08-19T01:38:02;92576.63;;;8.85;91.29
17521;BME280;8878;-33.370;-70.552;2022-08-19T01:40:35;92582.88;;;8.79;91.61
17521;BME280;8878;-33.370;-70.552;2022-08-19T01:43:05;92576.56;;;8.80;92.41
17521;BME280;8878;-33.370;-70.552;2022-08-19T01:45:36;92587.09;;;8.80;94.44
17521;BME280;8878;-33.370;-70.552;2022-08-19T01:48:07;92587.50;;;8.72;93.71
17521;BME280;8878;-33.370;-70.552;2022-08-19T01:50:36;92602.38;;;8.83;90.29
17521;BME280;8878;-33.370;-70.552;2022-08-19T01:53:10;92598.09;;;8.98;88.40
17521;BME280;8878;-33.370;-70.552;2022-08-19T01:55:43;92585.41;;;9.17;88.19
17521;BME280;8878;-33.370;-70.552;2022-08-19T01:58:20;92599.38;;;9.18;87.62
17521;BME280;8878;-33.370;-70.552;2022-08-19T02:00:51;92597.00;;;9.16;87.14
17521;BME280;8878;-33.370;-70.552;2022-08-19T02:03:20;92592.59;;;9.22;85.06
17521;BME280;8878;-33.370;-70.552;2022-08-19T02:05:54;92595.66;;;9.14;88.62
17521;BME280;8878;-33.370;-70.552;2022-08-19T02:08:26;92597.13;;;9.04;89.14
17521;BME280;8878;-33.370;-70.552;2022-08-19T02:10:55;92600.00;;;9.03;88.17
17521;BME280;8878;-33.370;-70.552;2022-08-19T02:13:27;92595.19;;;8.95;88.39
17521;BME280;8878;-33.370;-70.552;2022-08-19T02:15:56;92584.47;;;8.80;89.40
17521;BME280;8878;-33.370;-70.552;2022-08-19T02:18:26;92585.28;;;8.63;89.42
17521;BME280;8878;-33.370;-70.552;2022-08-19T02:20:55;92588.13;;;8.40;89.96
17521;BME280;8878;-33.370;-70.552;2022-08-19T02:23:26;92589.41;;;8.38;90.86
17521;BME280;8878;-33.370;-70.552;2022-08-19T02:25:56;92592.41;;;8.30;90.31
17521;BME280;8878;-33.370;-70.552;2022-08-19T02:28:25;92581.75;;;8.36;90.98
17521;BME280;8878;-33.370;-70.552;2022-08-19T02:30:54;92586.06;;;8.42;90.82
17521;BME280;8878;-33.370;-70.552;2022-08-19T02:33:24;92578.78;;;8.49;89.35
17521;BME280;8878;-33.370;-70.552;2022-08-19T02:35:54;92567.19;;;8.45;89.23
17521;BME280;8878;-33.370;-70.552;2022-08-19T02:38:25;92564.78;;;8.44;88.87
17521;BME280;8878;-33.370;-70.552;2022-08-19T02:40:56;92564.28;;;8.47;88.41
17521;BME280;8878;-33.370;-70.552;2022-08-19T02:43:28;92571.53;;;8.56;88.63
17521;BME280;8878;-33.370;-70.552;2022-08-19T02:45:57;92568.09;;;8.56;89.31
17521;BME280;8878;-33.370;-70.552;2022-08-19T02:48:27;92558.31;;;8.51;89.82
17521;BME280;8878;-33.370;-70.552;2022-08-19T02:50:56;92564.88;;;8.32;90.68
17521;BME280;8878;-33.370;-70.552;2022-08-19T02:53:28;92564.78;;;8.27;91.50
17521;BME280;8878;-33.370;-70.552;2022-08-19T02:55:58;92569.56;;;8.30;90.98
17521;BME280;8878;-33.370;-70.552;2022-08-19T02:58:27;92568.75;;;8.30;90.44
17521;BME280;8878;-33.370;-70.552;2022-08-19T03:00:57;92560.25;;;8.06;89.85
17521;BME280;8878;-33.370;-70.552;2022-08-19T03:03:26;92555.56;;;7.91;91.38
17521;BME280;8878;-33.370;-70.552;2022-08-19T03:06:07;92551.03;;;7.86;91.86
17521;BME280;8878;-33.370;-70.552;2022-08-19T03:08:40;92548.38;;;8.03;93.01
17521;BME280;8878;-33.370;-70.552;2022-08-19T03:11:14;92546.16;;;8.12;92.75
17521;BME280;8878;-33.370;-70.552;2022-08-19T03:13:44;92536.59;;;8.06;92.81
17521;BME280;8878;-33.370;-70.552;2022-08-19T03:16:13;92532.94;;;8.07;93.32
17521;BME280;8878;-33.370;-70.552;2022-08-19T03:18:42;92527.63;;;8.02;92.62
17521;BME280;8878;-33.370;-70.552;2022-08-19T03:21:16;92521.16;;;7.93;93.37
17521;BME280;8878;-33.370;-70.552;2022-08-19T03:23:48;92534.63;;;7.79;93.54
17521;BME280;8878;-33.370;-70.552;2022-08-19T03:26:17;92524.28;;;7.73;94.97
17521;BME280;8878;-33.370;-70.552;2022-08-19T03:28:46;92532.16;;;7.56;94.55
17521;BME280;8878;-33.370;-70.552;2022-08-19T03:31:18;92528.97;;;7.54;96.01
17521;BME280;8878;-33.370;-70.552;2022-08-19T03:33:48;92520.69;;;7.62;96.50
17521;BME280;8878;-33.370;-70.552;2022-08-19T03:36:19;92518.63;;;7.64;95.91
17521;BME280;8878;-33.370;-70.552;2022-08-19T03:38:53;92517.59;;;7.65;95.81
17521;BME280;8878;-33.370;-70.552;2022-08-19T03:41:24;92514.81;;;7.72;96.67
17521;BME280;8878;-33.370;-70.552;2022-08-19T03:43:54;92519.44;;;7.81;95.63
17521;BME280;8878;-33.370;-70.552;2022-08-19T03:46:26;92512.66;;;7.85;95.35
17521;BME280;8878;-33.370;-70.552;2022-08-19T03:48:57;92517.22;;;7.73;95.54
17521;BME280;8878;-33.370;-70.552;2022-08-19T03:51:29;92516.66;;;7.71;96.06
17521;BME280;8878;-33.370;-70.552;2022-08-19T03:54:03;92505.09;;;7.72;95.18
17521;BME280;8878;-33.370;-70.552;2022-08-19T03:56:34;92508.59;;;7.61;92.71
17521;BME280;8878;-33.370;-70.552;2022-08-19T03:59:04;92497.63;;;7.64;93.17
17521;BME280;8878;-33.370;-70.552;2022-08-19T04:01:35;92488.00;;;7.70;94.27
17521;BME280;8878;-33.370;-70.552;2022-08-19T04:04:05;92495.06;;;7.69;94.63
17521;BME280;8878;-33.370;-70.552;2022-08-19T04:06:36;92498.59;;;7.58;94.37
17521;BME280;8878;-33.370;-70.552;2022-08-19T04:09:10;92490.22;;;7.61;94.50
17521;BME280;8878;-33.370;-70.552;2022-08-19T04:11:41;92490.94;;;7.57;93.80
17521;BME280;8878;-33.370;-70.552;2022-08-19T04:14:10;92483.16;;;7.45;94.20
17521;BME280;8878;-33.370;-70.552;2022-08-19T04:16:40;92484.38;;;7.26;93.41
17521;BME280;8878;-33.370;-70.552;2022-08-19T04:19:10;92489.47;;;7.16;95.68
17521;BME280;8878;-33.370;-70.552;2022-08-19T04:21:43;92483.34;;;7.27;96.44
17521;BME280;8878;-33.370;-70.552;2022-08-19T04:24:15;92476.97;;;7.06;95.91
17521;BME280;8878;-33.370;-70.552;2022-08-19T04:26:45;92469.91;;;7.06;96.21
17521;BME280;8878;-33.370;-70.552;2022-08-19T04:29:17;92474.84;;;7.20;96.42
17521;BME280;8878;-33.370;-70.552;2022-08-19T04:31:50;92478.19;;;7.32;96.07
17521;BME280;8878;-33.370;-70.552;2022-08-19T04:34:22;92471.44;;;7.36;95.50
17521;BME280;8878;-33.370;-70.552;2022-08-19T04:36:54;92467.63;;;7.27;96.21
17521;BME280;8878;-33.370;-70.552;2022-08-19T04:39:29;92451.06;;;7.10;94.45
17521;BME280;8878;-33.370;-70.552;2022-08-19T04:42:11;92451.34;;;6.96;93.59
17521;BME280;8878;-33.370;-70.552;2022-08-19T04:44:58;92443.44;;;7.08;94.71
17521;BME280;8878;-33.370;-70.552;2022-08-19T04:47:27;92442.06;;;7.05;92.86
17521;BME280;8878;-33.370;-70.552;2022-08-19T04:49:59;92439.53;;;7.11;92.86
17521;BME280;8878;-33.370;-70.552;2022-08-19T04:52:28;92440.09;;;7.13;91.29
17521;BME280;8878;-33.370;-70.552;2022-08-19T04:55:00;92434.78;;;7.24;91.31
17521;BME280;8878;-33.370;-70.552;2022-08-19T04:57:30;92435.56;;;7.25;90.58
17521;BME280;8878;-33.370;-70.552;2022-08-19T04:59:59;92439.00;;;7.08;89.13
17521;BME280;8878;-33.370;-70.552;2022-08-19T05:02:30;92441.69;;;7.14;88.35
17521;BME280;8878;-33.370;-70.552;2022-08-19T05:05:00;92443.03;;;7.33;87.76
17521;BME280;8878;-33.370;-70.552;2022-08-19T05:07:29;92451.94;;;7.32;88.97
17521;BME280;8878;-33.370;-70.552;2022-08-19T05:10:00;92448.16;;;7.23;90.19
17521;BME280;8878;-33.370;-70.552;2022-08-19T05:12:30;92448.91;;;7.06;90.37
17521;BME280;8878;-33.370;-70.552;2022-08-19T05:15:00;92438.00;;;6.98;90.46
17521;BME280;8878;-33.370;-70.552;2022-08-19T05:17:31;92447.41;;;7.11;90.77
17521;BME280;8878;-33.370;-70.552;2022-08-19T05:20:00;92448.16;;;7.23;91.38
17521;BME280;8878;-33.370;-70.552;2022-08-19T05:22:47;92444.34;;;7.30;91.71
17521;BME280;8878;-33.370;-70.552;2022-08-19T05:25:21;92447.25;;;7.34;90.39
17521;BME280;8878;-33.370;-70.552;2022-08-19T05:27:53;92441.31;;;7.38;91.42
17521;BME280;8878;-33.370;-70.552;2022-08-19T05:30:22;92444.06;;;7.48;90.73
17521;BME280;8878;-33.370;-70.552;2022-08-19T05:32:51;92444.94;;;7.54;91.03
17521;BME280;8878;-33.370;-70.552;2022-08-19T05:35:22;92437.63;;;7.39;91.59
17521;BME280;8878;-33.370;-70.552;2022-08-19T05:37:51;92437.94;;;7.26;91.59
17521;BME280;8878;-33.370;-70.552;2022-08-19T05:40:23;92428.41;;;7.20;91.24
17521;BME280;8878;-33.370;-70.552;2022-08-19T05:42:52;92426.81;;;7.02;90.29
17521;BME280;8878;-33.370;-70.552;2022-08-19T05:45:22;92425.22;;;7.01;92.33
17521;BME280;8878;-33.370;-70.552;2022-08-19T05:47:51;92422.13;;;7.04;92.15
17521;BME280;8878;-33.370;-70.552;2022-08-19T05:50:21;92423.47;;;7.07;92.21
17521;BME280;8878;-33.370;-70.552;2022-08-19T05:52:50;92425.63;;;6.93;90.50
17521;BME280;8878;-33.370;-70.552;2022-08-19T05:55:19;92414.47;;;6.86;89.80
17521;BME280;8878;-33.370;-70.552;2022-08-19T05:57:51;92415.97;;;6.82;89.01
17521;BME280;8878;-33.370;-70.552;2022-08-19T06:00:20;92407.72;;;6.90;88.17
17521;BME280;8878;-33.370;-70.552;2022-08-19T06:02:50;92400.50;;;6.97;88.56
17521;BME280;8878;-33.370;-70.552;2022-08-19T06:05:21;92400.59;;;7.02;88.61
17521;BME280;8878;-33.370;-70.552;2022-08-19T06:07:50;92399.53;;;7.03;87.28
17521;BME280;8878;-33.370;-70.552;2022-08-19T06:10:21;92395.81;;;6.99;86.67
17521;BME280;8878;-33.370;-70.552;2022-08-19T06:12:52;92396.38;;;7.01;86.39
17521;BME280;8878;-33.370;-70.552;2022-08-19T06:15:23;92395.34;;;7.02;85.53
17521;BME280;8878;-33.370;-70.552;2022-08-19T06:17:54;92392.00;;;7.07;83.43
17521;BME280;8878;-33.370;-70.552;2022-08-19T06:20:24;92392.16;;;7.17;83.13
17521;BME280;8878;-33.370;-70.552;2022-08-19T06:22:53;92388.81;;;7.22;83.46
17521;BME280;8878;-33.370;-70.552;2022-08-19T06:25:22;92386.75;;;7.24;82.53
17521;BME280;8878;-33.370;-70.552;2022-08-19T06:27:53;92387.06;;;7.11;82.39
17521;BME280;8878;-33.370;-70.552;2022-08-19T06:30:22;92383.06;;;6.91;81.79
17521;BME280;8878;-33.370;-70.552;2022-08-19T06:32:52;92374.56;;;6.84;81.32
17521;BME280;8878;-33.370;-70.552;2022-08-19T06:35:22;92376.88;;;6.81;80.25
17521;BME280;8878;-33.370;-70.552;2022-08-19T06:37:52;92373.94;;;6.77;81.72
17521;BME280;8878;-33.370;-70.552;2022-08-19T06:40:21;92370.28;;;6.78;82.39
17521;BME280;8878;-33.370;-70.552;2022-08-19T06:42:52;92366.56;;;6.74;82.45
17521;BME280;8878;-33.370;-70.552;2022-08-19T06:45:23;92363.66;;;6.59;80.88
17521;BME280;8878;-33.370;-70.552;2022-08-19T06:47:53;92371.78;;;6.74;81.77
17521;BME280;8878;-33.370;-70.552;2022-08-19T06:50:23;92380.16;;;6.88;80.13
17521;BME280;8878;-33.370;-70.552;2022-08-19T06:52:53;92381.44;;;7.02;76.96
17521;BME280;8878;-33.370;-70.552;2022-08-19T06:55:22;92385.50;;;7.10;76.57
17521;BME280;8878;-33.370;-70.552;2022-08-19T06:57:53;92378.78;;;7.19;76.46
17521;BME280;8878;-33.370;-70.552;2022-08-19T07:00:22;92378.63;;;7.25;75.35
17521;BME280;8878;-33.370;-70.552;2022-08-19T07:02:53;92382.03;;;7.26;75.80
17521;BME280;8878;-33.370;-70.552;2022-08-19T07:05:22;92387.53;;;7.41;77.64
17521;BME280;8878;-33.370;-70.552;2022-08-19T07:07:51;92383.25;;;7.35;79.60
17521;BME280;8878;-33.370;-70.552;2022-08-19T07:10:21;92374.56;;;7.18;80.16
17521;BME280;8878;-33.370;-70.552;2022-08-19T07:12:52;92375.28;;;7.13;78.95
17521;BME280;8878;-33.370;-70.552;2022-08-19T07:15:21;92373.00;;;7.17;78.18
17521;BME280;8878;-33.370;-70.552;2022-08-19T07:17:51;92364.81;;;7.13;78.34
17521;BME280;8878;-33.370;-70.552;2022-08-19T07:20:20;92361.63;;;6.94;78.92
17521;BME280;8878;-33.370;-70.552;2022-08-19T07:22:51;92360.34;;;6.80;77.29
17521;BME280;8878;-33.370;-70.552;2022-08-19T07:25:21;92340.88;;;6.93;78.57
17521;BME280;8878;-33.370;-70.552;2022-08-19T07:27:50;92346.19;;;6.98;78.50
17521;BME280;8878;-33.370;-70.552;2022-08-19T07:30:21;92340.16;;;6.97;76.81
17521;BME280;8878;-33.370;-70.552;2022-08-19T07:32:51;92339.38;;;7.14;75.53
17521;BME280;8878;-33.370;-70.552;2022-08-19T07:35:22;92346.38;;;7.08;74.09
17521;BME280;8878;-33.370;-70.552;2022-08-19T07:37:51;92345.56;;;7.07;74.62
17521;BME280;8878;-33.370;-70.552;2022-08-19T07:40:21;92352.25;;;7.15;75.25
17521;BME280;8878;-33.370;-70.552;2022-08-19T07:42:52;92344.03;;;7.12;74.39
17521;BME280;8878;-33.370;-70.552;2022-08-19T07:45:23;92340.78;;;7.04;75.36
17521;BME280;8878;-33.370;-70.552;2022-08-19T07:47:53;92345.78;;;6.89;74.77
17521;BME280;8878;-33.370;-70.552;2022-08-19T07:50:22;92345.41;;;6.97;74.12
17521;BME280;8878;-33.370;-70.552;2022-08-19T07:52:52;92345.06;;;7.11;70.85
17521;BME280;8878;-33.370;-70.552;2022-08-19T07:55:23;92354.75;;;7.43;68.29
17521;BME280;8878;-33.370;-70.552;2022-08-19T07:57:54;92356.66;;;7.48;69.34
17521;BME280;8878;-33.370;-70.552;2022-08-19T08:00:25;92357.00;;;7.35;70.04
17521;BME280;8878;-33.370;-70.552;2022-08-19T08:02:54;92354.94;;;7.37;72.37
17521;BME280;8878;-33.370;-70.552;2022-08-19T08:05:25;92349.28;;;7.28;74.50
17521;BME280;8878;-33.370;-70.552;2022-08-19T08:08:25;92349.06;;;7.13;75.96
17521;BME280;8878;-33.370;-70.552;2022-08-19T08:11:13;92342.16;;;7.07;74.37
17521;BME280;8878;-33.370;-70.552;2022-08-19T08:13:43;92344.16;;;7.17;74.52
17521;BME280;8878;-33.370;-70.552;2022-08-19T08:16:14;92341.81;;;7.20;76.61
17521;BME280;8878;-33.370;-70.552;2022-08-19T08:18:43;92343.03;;;7.13;77.22
17521;BME280;8878;-33.370;-70.552;2022-08-19T08:21:13;92340.78;;;7.04;76.62
17521;BME280;8878;-33.370;-70.552;2022-08-19T08:23:43;92342.00;;;7.14;76.66
17521;BME280;8878;-33.370;-70.552;2022-08-19T08:26:12;92336.75;;;7.14;77.93
17521;BME280;8878;-33.370;-70.552;2022-08-19T08:28:42;92326.56;;;7.00;79.58
17521;BME280;8878;-33.370;-70.552;2022-08-19T08:31:15;92338.34;;;6.98;80.14
17521;BME280;8878;-33.370;-70.552;2022-08-19T08:33:46;92327.59;;;6.99;80.90
17521;BME280;8878;-33.370;-70.552;2022-08-19T08:36:16;92323.31;;;6.93;80.37
17521;BME280;8878;-33.370;-70.552;2022-08-19T08:38:46;92327.53;;;6.94;79.65
17521;BME280;8878;-33.370;-70.552;2022-08-19T08:41:23;92329.66;;;7.14;78.61
17521;BME280;8878;-33.370;-70.552;2022-08-19T08:43:56;92332.75;;;7.28;78.77
17521;BME280;8878;-33.370;-70.552;2022-08-19T08:46:36;92333.72;;;7.22;80.16
17521;BME280;8878;-33.370;-70.552;2022-08-19T08:49:23;92328.81;;;7.08;80.00
17521;BME280;8878;-33.370;-70.552;2022-08-19T08:52:02;92321.16;;;6.90;78.97
17521;BME280;8878;-33.370;-70.552;2022-08-19T08:54:36;92324.41;;;6.97;77.54
17521;BME280;8878;-33.370;-70.552;2022-08-19T08:57:12;92323.97;;;7.00;78.07
17521;BME280;8878;-33.370;-70.552;2022-08-19T08:59:46;92324.06;;;6.89;79.58
17521;BME280;8878;-33.370;-70.552;2022-08-19T09:02:19;92322.25;;;6.61;79.63
17521;BME280;8878;-33.370;-70.552;2022-08-19T09:04:49;92324.88;;;6.61;79.71
17521;BME280;8878;-33.370;-70.552;2022-08-19T09:07:26;92316.00;;;6.79;78.90
17521;BME280;8878;-33.370;-70.552;2022-08-19T09:10:07;92316.47;;;6.92;79.23
17521;BME280;8878;-33.370;-70.552;2022-08-19T09:12:45;92317.38;;;6.81;81.32
17521;BME280;8878;-33.370;-70.552;2022-08-19T09:15:21;92325.13;;;6.76;81.46
17521;BME280;8878;-33.370;-70.552;2022-08-19T09:17:53;92323.47;;;6.87;80.36
17521;BME280;8878;-33.370;-70.552;2022-08-19T09:20:24;92305.53;;;6.95;80.70
17521;BME280;8878;-33.370;-70.552;2022-08-19T09:22:53;92316.03;;;6.95;83.17
17521;BME280;8878;-33.370;-70.552;2022-08-19T09:25:23;92306.97;;;6.86;82.49
17521;BME280;8878;-33.370;-70.552;2022-08-19T09:27:53;92310.59;;;6.85;81.76
17521;BME280;8878;-33.370;-70.552;2022-08-19T09:30:25;92311.25;;;6.92;80.67
17521;BME280;8878;-33.370;-70.552;2022-08-19T09:32:58;92304.88;;;7.05;78.20
17521;BME280;8878;-33.370;-70.552;2022-08-19T09:35:30;92302.19;;;7.00;80.97
17521;BME280;8878;-33.370;-70.552;2022-08-19T09:38:00;92296.84;;;6.78;79.66
17521;BME280;8878;-33.370;-70.552;2022-08-19T09:40:29;92298.63;;;6.73;79.00
17521;BME280;8878;-33.370;-70.552;2022-08-19T09:42:59;92296.13;;;6.83;78.21
17521;BME280;8878;-33.370;-70.552;2022-08-19T09:45:29;92295.19;;;6.89;77.44
17521;BME280;8878;-33.370;-70.552;2022-08-19T09:48:00;92291.06;;;6.93;75.92
17521;BME280;8878;-33.370;-70.552;2022-08-19T09:50:30;92279.75;;;6.92;76.31
17521;BME280;8878;-33.370;-70.552;2022-08-19T09:53:00;92283.34;;;6.86;77.48
17521;BME280;8878;-33.370;-70.552;2022-08-19T09:55:30;92277.94;;;6.76;75.51
17521;BME280;8878;-33.370;-70.552;2022-08-19T09:58:00;92285.28;;;6.74;75.59
17521;BME280;8878;-33.370;-70.552;2022-08-19T10:00:30;92277.41;;;6.57;73.36
17521;BME280;8878;-33.370;-70.552;2022-08-19T10:03:01;92272.78;;;6.81;74.44
17521;BME280;8878;-33.370;-70.552;2022-08-19T10:05:31;92274.06;;;6.79;73.20
17521;BME280;8878;-33.370;-70.552;2022-08-19T10:08:20;92276.03;;;6.72;74.44
17521;BME280;8878;-33.370;-70.552;2022-08-19T10:10:50;92279.47;;;6.72;74.64
17521;BME280;8878;-33.370;-70.552;2022-08-19T10:13:21;92272.88;;;6.53;74.44
17521;BME280;8878;-33.370;-70.552;2022-08-19T10:15:52;92276.41;;;6.47;75.02
17521;BME280;8878;-33.370;-70.552;2022-08-19T10:18:25;92275.72;;;6.51;73.57
17521;BME280;8878;-33.370;-70.552;2022-08-19T10:21:03;92276.22;;;6.65;72.48
17521;BME280;8878;-33.370;-70.552;2022-08-19T10:23:35;92272.63;;;6.88;71.21
17521;BME280;8878;-33.370;-70.552;2022-08-19T10:26:05;92275.44;;;7.20;66.96
17521;BME280;8878;-33.370;-70.552;2022-08-19T10:28:35;92271.91;;;7.31;69.22
17521;BME280;8878;-33.370;-70.552;2022-08-19T10:31:06;92273.47;;;7.32;68.32
17521;BME280;8878;-33.370;-70.552;2022-08-19T10:33:38;92270.38;;;7.35;66.24
17521;BME280;8878;-33.370;-70.552;2022-08-19T10:36:13;92265.28;;;7.45;67.78
17521;BME280;8878;-33.370;-70.552;2022-08-19T10:38:44;92267.22;;;7.55;67.29
17521;BME280;8878;-33.370;-70.552;2022-08-19T10:41:17;92263.31;;;7.57;68.00
17521;BME280;8878;-33.370;-70.552;2022-08-19T10:43:50;92262.75;;;7.55;68.41
17521;BME280;8878;-33.370;-70.552;2022-08-19T10:46:22;92277.44;;;7.51;69.90
17521;BME280;8878;-33.370;-70.552;2022-08-19T10:48:53;92276.41;;;7.52;69.43
17521;BME280;8878;-33.370;-70.552;2022-08-19T10:51:23;92275.03;;;7.50;65.38
17521;BME280;8878;-33.370;-70.552;2022-08-19T10:54:09;92270.41;;;7.57;64.74
17521;BME280;8878;-33.370;-70.552;2022-08-19T10:56:38;92280.78;;;7.68;63.08
17521;BME280;8878;-33.370;-70.552;2022-08-19T10:59:29;92275.34;;;7.75;64.92
17521;BME280;8878;-33.370;-70.552;2022-08-19T11:02:00;92279.63;;;7.59;66.95
17521;BME280;8878;-33.370;-70.552;2022-08-19T11:04:32;92272.16;;;7.29;67.24
17521;BME280;8878;-33.370;-70.552;2022-08-19T11:07:02;92268.22;;;7.10;67.94
17521;BME280;8878;-33.370;-70.552;2022-08-19T11:09:36;92273.53;;;7.15;67.20
17521;BME280;8878;-33.370;-70.552;2022-08-19T11:12:06;92277.16;;;7.31;65.90
17521;BME280;8878;-33.370;-70.552;2022-08-19T11:14:36;92272.56;;;7.21;66.94
17521;BME280;8878;-33.370;-70.552;2022-08-19T11:17:06;92270.34;;;7.13;67.22
17521;BME280;8878;-33.370;-70.552;2022-08-19T11:19:37;92283.25;;;7.15;65.28
17521;BME280;8878;-33.370;-70.552;2022-08-19T11:22:08;92274.09;;;7.39;64.17
17521;BME280;8878;-33.370;-70.552;2022-08-19T11:24:39;92268.63;;;7.62;63.27
17521;BME280;8878;-33.370;-70.552;2022-08-19T11:27:09;92267.97;;;7.72;60.12
17521;BME280;8878;-33.370;-70.552;2022-08-19T11:29:40;92265.81;;;7.91;60.60
17521;BME280;8878;-33.370;-70.552;2022-08-19T11:32:10;92262.75;;;7.99;59.91
17521;BME280;8878;-33.370;-70.552;2022-08-19T11:34:41;92275.47;;;8.12;59.26
17521;BME280;8878;-33.370;-70.552;2022-08-19T11:37:11;92271.19;;;8.27;56.81
17521;BME280;8878;-33.370;-70.552;2022-08-19T11:39:40;92274.81;;;8.48;54.39
17521;BME280;8878;-33.370;-70.552;2022-08-19T11:42:10;92275.22;;;8.67;52.73
17521;BME280;8878;-33.370;-70.552;2022-08-19T11:44:52;92271.44;;;8.85;51.28
17521;BME280;8878;-33.370;-70.552;2022-08-19T11:47:21;92268.41;;;9.03;51.08
17521;BME280;8878;-33.370;-70.552;2022-08-19T11:49:54;92267.47;;;9.19;52.16
17521;BME280;8878;-33.370;-70.552;2022-08-19T11:52:23;92272.00;;;9.29;50.01
17521;BME280;8878;-33.370;-70.552;2022-08-19T11:54:52;92271.81;;;9.46;50.34
17521;BME280;8878;-33.370;-70.552;2022-08-19T11:57:22;92274.75;;;9.49;48.31
17521;BME280;8878;-33.370;-70.552;2022-08-19T11:59:51;92273.25;;;9.63;49.81
17521;BME280;8878;-33.370;-70.552;2022-08-19T12:02:21;92274.84;;;9.69;51.21
17521;BME280;8878;-33.370;-70.552;2022-08-19T12:04:52;92278.75;;;9.57;54.48
17521;BME280;8878;-33.370;-70.552;2022-08-19T12:07:21;92266.78;;;9.39;53.68
17521;BME280;8878;-33.370;-70.552;2022-08-19T12:09:51;92271.78;;;9.40;54.17
17521;BME280;8878;-33.370;-70.552;2022-08-19T12:12:20;92266.84;;;9.44;57.56
17521;BME280;8878;-33.370;-70.552;2022-08-19T12:14:51;92272.81;;;9.29;56.04
17521;BME280;8878;-33.370;-70.552;2022-08-19T12:17:25;92272.28;;;9.32;55.68
17521;BME280;8878;-33.370;-70.552;2022-08-19T12:19:57;92277.09;;;9.46;53.63
17521;BME280;8878;-33.370;-70.552;2022-08-19T12:22:26;92292.50;;;9.74;47.43
17521;BME280;8878;-33.370;-70.552;2022-08-19T12:24:55;92297.91;;;10.09;48.56
17521;BME280;8878;-33.370;-70.552;2022-08-19T12:27:25;92294.09;;;10.37;47.95
17521;BME280;8878;-33.370;-70.552;2022-08-19T12:29:54;92301.22;;;10.47;47.83
17521;BME280;8878;-33.370;-70.552;2022-08-19T12:32:23;92316.03;;;10.68;46.34
17521;BME280;8878;-33.370;-70.552;2022-08-19T12:34:53;92318.69;;;10.83;45.94
17521;BME280;8878;-33.370;-70.552;2022-08-19T12:37:24;92318.44;;;11.10;44.43
17521;BME280;8878;-33.370;-70.552;2022-08-19T12:39:56;92322.69;;;11.21;45.72
17521;BME280;8878;-33.370;-70.552;2022-08-19T12:42:26;92320.03;;;11.21;47.09
17521;BME280;8878;-33.370;-70.552;2022-08-19T12:44:56;92330.84;;;11.25;49.01
17521;BME280;8878;-33.370;-70.552;2022-08-19T12:47:26;92333.25;;;11.21;48.97
17521;BME280;8878;-33.370;-70.552;2022-08-19T12:49:55;92338.22;;;11.23;50.47
17521;BME280;8878;-33.370;-70.552;2022-08-19T12:52:27;92332.44;;;11.26;49.05
17521;BME280;8878;-33.370;-70.552;2022-08-19T12:54:56;92341.41;;;11.30;49.41
17521;BME280;8878;-33.370;-70.552;2022-08-19T12:57:27;92341.69;;;11.28;49.58
17521;BME280;8878;-33.370;-70.552;2022-08-19T13:00:01;92345.09;;;11.39;50.38
17521;BME280;8878;-33.370;-70.552;2022-08-19T13:02:34;92347.22;;;11.57;50.20
17521;BME280;8878;-33.370;-70.552;2022-08-19T13:05:04;92345.09;;;11.64;51.12
17521;BME280;8878;-33.370;-70.552;2022-08-19T13:07:36;92350.91;;;11.61;50.10
17521;BME280;8878;-33.370;-70.552;2022-08-19T13:10:08;92349.56;;;11.69;49.62